createdAt,value
2023-03-21T00:00:35.447Z,41.33
2023-03-21T00:01:35.493Z,41.30
2023-03-21T00:02:35.516Z,41.25
2023-03-21T00:03:35.506Z,41.19
2023-03-21T00:04:50.528Z,41.23
2023-03-21T00:05:35.686Z,41.21
2023-03-21T00:07:53.747Z,41.30
2023-03-21T00:10:18.152Z,41.33
2023-03-21T00:11:14.000Z,41.27
2023-03-21T00:12:14.043Z,41.24
2023-03-21T00:13:13.977Z,41.30
2023-03-21T00:15:42.569Z,41.35
2023-03-21T00:16:34.370Z,41.30
2023-03-21T00:19:51.644Z,41.26
2023-03-21T00:22:12.024Z,41.25
2023-03-21T00:24:29.567Z,41.28
2023-03-21T00:25:30.792Z,41.26
2023-03-21T00:26:29.654Z,41.24
2023-03-21T00:28:48.867Z,41.26
2023-03-21T00:29:48.584Z,41.21
2023-03-21T00:32:07.790Z,41.30
2023-03-21T00:34:36.931Z,41.24
2023-03-21T00:35:58.036Z,41.22
2023-03-21T00:36:27.843Z,41.21
2023-03-21T00:37:28.541Z,41.21
2023-03-21T00:39:46.113Z,41.20
2023-03-21T00:42:05.325Z,41.22
2023-03-21T00:44:24.457Z,41.24
2023-03-21T00:45:25.395Z,41.23
2023-03-21T00:47:43.796Z,41.21
2023-03-21T00:48:43.497Z,41.17
2023-03-21T00:49:44.528Z,41.17
2023-03-21T00:52:15.086Z,41.18
2023-03-21T00:53:03.774Z,41.14
2023-03-21T00:55:21.932Z,41.09
2023-03-21T00:57:42.262Z,41.13
2023-03-21T00:58:41.757Z,41.11
2023-03-21T01:01:00.267Z,41.18
2023-03-21T01:02:01.142Z,41.11
2023-03-21T01:04:20.062Z,41.16
2023-03-21T01:06:38.865Z,41.17
2023-03-21T01:07:39.592Z,41.07
2023-03-21T01:08:51.747Z,41.05
2023-03-21T01:10:57.711Z,41.10
2023-03-21T01:11:58.821Z,40.98
2023-03-21T01:12:58.747Z,40.98
2023-03-21T01:45:31.852Z,41.06
2023-03-21T01:47:51.202Z,40.98
2023-03-21T01:50:10.084Z,41.08
2023-03-21T01:51:11.070Z,41.03
2023-03-21T01:53:29.406Z,40.99
2023-03-21T01:54:30.292Z,40.95
2023-03-21T01:56:48.526Z,40.95
2023-03-21T01:58:04.282Z,40.95
2023-03-21T01:58:49.327Z,40.90
2023-03-21T01:59:49.290Z,40.89
2023-03-21T02:00:49.327Z,40.89
2023-03-21T02:01:49.309Z,40.84
2023-03-21T02:04:07.558Z,40.94
2023-03-21T02:06:26.677Z,41.00
2023-03-21T02:07:27.578Z,40.91
2023-03-21T02:08:38.276Z,40.89
2023-03-21T02:10:45.851Z,40.93
2023-03-21T02:11:46.648Z,40.91
2023-03-21T02:12:46.662Z,40.86
2023-03-21T02:13:48.697Z,40.80
2023-03-21T02:14:46.827Z,40.91
2023-03-21T02:15:46.660Z,40.83
2023-03-21T02:16:46.710Z,40.85
2023-03-21T02:17:46.621Z,40.85
2023-03-21T02:18:46.105Z,40.89
2023-03-21T02:19:53.182Z,40.86
2023-03-21T02:22:04.929Z,40.81
2023-03-21T02:24:23.915Z,40.82
2023-03-21T02:25:24.956Z,40.80
2023-03-21T02:26:28.467Z,40.77
2023-03-21T02:27:24.992Z,40.80
2023-03-21T02:29:43.074Z,40.84
2023-03-21T02:32:15.153Z,40.85
2023-03-21T02:33:03.100Z,40.85
2023-03-21T02:34:02.121Z,40.85
2023-03-21T02:35:02.078Z,40.76
2023-03-21T02:37:28.742Z,40.79
2023-03-21T02:41:01.735Z,40.88
2023-03-21T02:43:23.270Z,40.91
2023-03-21T02:44:20.028Z,40.79
2023-03-21T02:47:06.869Z,40.77
2023-03-21T02:49:25.605Z,40.79
2023-03-21T02:51:44.711Z,40.92
2023-03-21T02:52:46.161Z,40.87
2023-03-21T02:53:44.675Z,40.83
2023-03-21T02:54:48.431Z,40.78
2023-03-21T02:57:03.919Z,40.92
2023-03-21T02:59:22.968Z,40.93
2023-03-21T03:00:24.101Z,40.85
2023-03-21T03:02:41.976Z,40.83
2023-03-21T03:03:43.094Z,40.74
2023-03-21T03:04:42.925Z,40.77
2023-03-21T03:07:01.253Z,40.81
2023-03-21T03:08:02.142Z,40.78
2023-03-21T03:10:20.423Z,40.80
2023-03-21T03:11:21.305Z,40.76
2023-03-21T03:12:21.212Z,40.74
2023-03-21T03:14:53.114Z,40.75
2023-03-21T03:16:58.521Z,40.80
2023-03-21T03:17:59.454Z,40.85
2023-03-21T03:18:59.727Z,40.77
2023-03-21T03:21:17.644Z,40.70
2023-03-21T03:22:17.736Z,40.64
2023-03-21T03:24:36.915Z,40.70
2023-03-21T03:25:42.985Z,40.65
2023-03-21T03:27:55.960Z,40.77
2023-03-21T03:30:15.209Z,40.77
2023-03-21T03:31:16.567Z,40.72
2023-03-21T03:32:16.160Z,40.72
2023-03-21T03:34:39.782Z,40.74
2023-03-21T03:36:58.900Z,40.79
2023-03-21T03:39:18.041Z,40.79
2023-03-21T03:42:02.981Z,40.79
2023-03-21T03:42:38.155Z,40.73
2023-03-21T03:43:38.142Z,40.73
2023-03-21T03:46:00.116Z,40.65
2023-03-21T03:47:00.972Z,40.65
2023-03-21T03:49:19.461Z,40.42
2023-03-21T03:51:38.947Z,40.40
2023-03-21T03:53:57.816Z,40.24
2023-03-21T03:54:58.569Z,40.17
2023-03-21T03:55:57.537Z,40.05
2023-03-21T03:58:23.592Z,40.05
2023-03-21T04:00:36.093Z,39.87
2023-03-21T04:01:36.687Z,39.76
2023-03-21T04:02:36.678Z,39.66
2023-03-21T04:03:47.955Z,39.62
2023-03-21T04:05:54.768Z,39.53
2023-03-21T04:06:57.569Z,39.50
2023-03-21T04:07:55.725Z,39.40
2023-03-21T04:08:55.731Z,39.32
2023-03-21T04:09:55.722Z,39.31
2023-03-21T04:12:13.865Z,39.20
2023-03-21T04:13:14.817Z,39.16
2023-03-21T04:14:14.787Z,39.16
2023-03-21T04:15:15.279Z,39.10
2023-03-21T04:16:15.761Z,39.04
2023-03-21T04:18:34.890Z,39.09
2023-03-21T04:20:52.524Z,39.05
2023-03-21T04:23:11.409Z,38.97
2023-03-21T04:24:12.507Z,38.89
2023-03-21T04:26:30.629Z,38.82
2023-03-21T04:28:49.890Z,38.86
2023-03-21T04:29:50.985Z,38.79
2023-03-21T04:32:45.046Z,38.69
2023-03-21T04:33:46.626Z,38.64
2023-03-21T04:36:04.421Z,38.63
2023-03-21T04:38:23.379Z,38.65
2023-03-21T04:39:23.496Z,38.59
2023-03-21T04:41:42.408Z,38.55
2023-03-21T04:44:01.676Z,38.54
2023-03-21T04:45:01.656Z,38.41
2023-03-21T04:47:20.981Z,38.37
2023-03-21T04:49:39.886Z,38.30
2023-03-21T04:50:39.861Z,38.32
2023-03-21T04:52:58.962Z,38.42
2023-03-21T04:53:58.898Z,38.28
2023-03-21T04:54:59.921Z,38.29
2023-03-21T04:55:59.948Z,38.22
2023-03-21T04:58:18.168Z,38.28
2023-03-21T04:59:18.271Z,38.21
2023-03-21T05:01:37.468Z,38.33
2023-03-21T05:03:56.389Z,38.28
2023-03-21T05:04:57.444Z,38.35
2023-03-21T05:05:57.293Z,38.25
2023-03-21T05:08:15.628Z,38.32
2023-03-21T05:09:16.516Z,38.24
2023-03-21T05:10:16.395Z,38.29
2023-03-21T05:11:16.428Z,38.27
2023-03-21T05:12:16.451Z,38.18
2023-03-21T05:13:16.387Z,38.29
2023-03-21T05:14:16.321Z,38.19
2023-03-21T05:15:16.690Z,38.26
2023-03-21T05:18:53.515Z,38.37
2023-03-21T05:19:53.505Z,38.32
2023-03-21T05:22:12.754Z,38.34
2023-03-21T05:24:32.150Z,38.33
2023-03-21T05:25:33.086Z,38.31
2023-03-21T05:26:33.023Z,38.23
2023-03-21T05:28:51.427Z,38.31
2023-03-21T05:29:52.333Z,38.17
2023-03-21T05:30:51.737Z,38.24
2023-03-21T05:31:52.572Z,38.16
2023-03-21T05:34:10.724Z,38.19
2023-03-21T05:36:30.075Z,38.20
2023-03-21T05:37:43.779Z,38.17
2023-03-21T05:38:30.644Z,38.09
2023-03-21T05:40:48.909Z,38.11
2023-03-21T05:41:49.710Z,38.10
2023-03-21T05:42:49.691Z,38.06
2023-03-21T05:43:49.709Z,38.03
2023-03-21T05:46:20.308Z,38.06
2023-03-21T05:48:39.444Z,38.06
2023-03-21T05:51:16.737Z,38.10
2023-03-21T05:52:19.249Z,38.09
2023-03-21T05:54:36.301Z,38.06
2023-03-21T05:55:48.949Z,38.02
2023-03-21T05:56:36.580Z,37.99
2023-03-21T05:57:36.404Z,37.98
2023-03-21T05:58:36.757Z,37.93
2023-03-21T05:59:38.324Z,37.91
2023-03-21T06:00:36.368Z,37.88
2023-03-21T06:01:36.343Z,37.86
2023-03-21T06:02:36.398Z,37.92
2023-03-21T06:03:43.493Z,37.88
2023-03-21T06:04:36.573Z,37.89
2023-03-21T06:05:36.559Z,37.87
2023-03-21T06:06:36.316Z,37.88
2023-03-21T06:07:36.301Z,37.88
2023-03-21T06:08:36.281Z,37.90
2023-03-21T06:09:36.292Z,37.90
2023-03-21T06:10:36.271Z,37.85
2023-03-21T06:11:36.265Z,37.90
2023-03-21T06:12:36.300Z,37.86
2023-03-21T06:13:36.267Z,37.88
2023-03-21T06:14:36.245Z,37.87
2023-03-21T06:15:36.545Z,37.91
2023-03-21T06:16:36.253Z,37.91
2023-03-21T06:17:36.244Z,37.90
2023-03-21T06:18:36.232Z,37.82
2023-03-21T06:19:35.248Z,37.90
2023-03-21T06:20:36.223Z,37.87
2023-03-21T06:21:36.234Z,37.87
2023-03-21T06:22:36.277Z,37.86
2023-03-21T06:23:36.282Z,37.87
2023-03-21T06:24:36.255Z,37.85
2023-03-21T06:25:36.656Z,38.11
2023-03-21T06:26:36.268Z,38.39
2023-03-21T06:27:36.342Z,40.23
2023-03-21T06:28:36.396Z,38.82
2023-03-21T06:30:36.293Z,38.60
2023-03-21T06:31:35.427Z,38.87
2023-03-21T06:32:36.341Z,38.74
2023-03-21T06:33:36.305Z,38.89
2023-03-21T06:34:38.387Z,39.07
2023-03-21T06:35:36.633Z,39.12
2023-03-21T06:36:36.293Z,39.43
2023-03-21T06:37:36.291Z,39.21
2023-03-21T06:38:36.268Z,39.26
2023-03-21T06:39:36.257Z,39.15
2023-03-21T06:40:36.252Z,39.47
2023-03-21T06:41:36.235Z,39.38
2023-03-21T06:42:36.281Z,39.31
2023-03-21T06:43:35.212Z,39.28
2023-03-21T06:44:36.241Z,39.47
2023-03-21T06:46:35.242Z,39.62
2023-03-21T06:47:36.198Z,39.66
2023-03-21T06:48:36.186Z,39.54
2023-03-21T06:49:36.182Z,39.58
2023-03-21T06:50:35.194Z,39.64
2023-03-21T06:51:36.173Z,39.76
2023-03-21T06:54:36.640Z,40.03
2023-03-21T06:55:35.347Z,40.22
2023-03-21T06:56:36.114Z,40.41
2023-03-21T06:57:36.130Z,40.71
2023-03-21T06:58:36.128Z,40.55
2023-03-21T06:59:36.163Z,41.05
2023-03-21T07:00:36.188Z,40.62
2023-03-21T07:01:36.096Z,41.06
2023-03-21T07:02:36.155Z,40.73
2023-03-21T07:03:36.143Z,40.87
2023-03-21T07:04:35.061Z,40.90
2023-03-21T07:05:36.235Z,40.78
2023-03-21T07:06:35.049Z,41.01
2023-03-21T07:08:05.604Z,41.16
2023-03-21T07:08:36.025Z,41.00
2023-03-21T07:09:36.021Z,41.08
2023-03-21T07:10:36.010Z,41.28
2023-03-21T07:12:35.020Z,41.68
2023-03-21T07:13:35.010Z,41.46
2023-03-21T07:14:36.017Z,41.64
2023-03-21T07:15:36.371Z,41.74
2023-03-21T07:16:36.110Z,41.87
2023-03-21T07:17:34.955Z,41.98
2023-03-21T07:18:35.962Z,41.94
2023-03-21T07:19:35.956Z,42.01
2023-03-21T07:20:35.959Z,41.99
2023-03-21T07:21:35.956Z,42.06
2023-03-21T07:22:35.939Z,42.02
2023-03-21T07:23:35.904Z,41.94
2023-03-21T07:24:35.920Z,41.97
2023-03-21T07:25:36.220Z,42.07
2023-03-21T07:26:35.911Z,42.12
2023-03-21T07:27:35.905Z,42.02
2023-03-21T07:28:35.901Z,42.30
2023-03-21T07:29:35.945Z,42.11
2023-03-21T07:31:35.892Z,42.37
2023-03-21T07:32:35.868Z,42.32
2023-03-21T07:33:35.653Z,42.19
2023-03-21T07:34:35.876Z,42.23
2023-03-21T07:35:36.271Z,42.11
2023-03-21T07:36:35.831Z,42.73
2023-03-21T07:37:37.833Z,42.56
2023-03-21T07:38:35.816Z,42.53
2023-03-21T07:39:35.809Z,42.82
2023-03-21T07:40:36.014Z,42.76
2023-03-21T07:41:35.792Z,42.77
2023-03-21T07:42:35.806Z,42.65
2023-03-21T07:43:37.103Z,42.69
2023-03-21T07:44:35.802Z,42.83
2023-03-21T07:45:36.020Z,42.69
2023-03-21T07:47:35.743Z,42.49
2023-03-21T07:48:35.754Z,42.75
2023-03-21T07:49:35.763Z,43.03
2023-03-21T07:50:35.735Z,42.72
2023-03-21T07:51:35.694Z,42.69
2023-03-21T07:53:35.682Z,42.26
2023-03-21T07:54:36.142Z,43.11
2023-03-21T07:55:36.047Z,43.37
2023-03-21T07:56:35.680Z,42.80
2023-03-21T07:57:35.681Z,42.97
2023-03-21T07:58:35.703Z,43.11
2023-03-21T07:59:35.648Z,42.97
2023-03-21T08:00:35.667Z,43.04
2023-03-21T08:04:35.655Z,42.89
2023-03-21T08:05:35.702Z,42.88
2023-03-21T08:06:35.609Z,43.12
2023-03-21T08:07:35.597Z,42.88
2023-03-21T08:08:35.574Z,43.15
2023-03-21T08:09:35.591Z,42.87
2023-03-21T08:10:35.696Z,42.94
2023-03-21T08:11:35.630Z,42.88
2023-03-21T08:13:35.736Z,43.12
2023-03-21T08:14:35.830Z,42.93
2023-03-21T08:15:36.077Z,43.03
2023-03-21T08:16:36.017Z,42.88
2023-03-21T08:17:35.977Z,42.99
2023-03-21T08:18:36.065Z,43.06
2023-03-21T08:19:36.126Z,42.92
2023-03-21T08:20:36.205Z,43.10
2023-03-21T08:21:36.227Z,43.31
2023-03-21T08:22:36.295Z,43.13
2023-03-21T08:23:36.344Z,43.20
2023-03-21T08:24:36.428Z,43.02
2023-03-21T08:25:36.888Z,42.94
2023-03-21T08:26:36.522Z,43.03
2023-03-21T08:27:36.602Z,43.07
2023-03-21T08:28:35.624Z,43.16
2023-03-21T08:29:35.709Z,43.14
2023-03-21T08:30:36.780Z,43.11
2023-03-21T08:31:36.795Z,43.16
2023-03-21T08:32:35.861Z,43.25
2023-03-21T08:33:35.932Z,43.27
2023-03-21T08:34:35.981Z,43.25
2023-03-21T08:35:40.419Z,43.32
2023-03-21T08:36:37.049Z,43.43
2023-03-21T08:37:36.041Z,43.32
2023-03-21T08:38:37.121Z,43.31
2023-03-21T08:39:37.137Z,43.30
2023-03-21T08:40:37.044Z,43.16
2023-03-21T08:41:36.015Z,43.17
2023-03-21T08:42:35.994Z,43.42
2023-03-21T08:43:35.992Z,43.45
2023-03-21T08:44:36.987Z,43.45
2023-03-21T08:45:37.551Z,43.34
2023-03-21T08:46:37.030Z,42.29
2023-03-21T08:47:36.973Z,39.54
2023-03-21T08:48:36.983Z,38.53
2023-03-21T08:49:36.999Z,38.58
2023-03-21T08:50:37.187Z,37.86
2023-03-21T08:51:37.077Z,38.29
2023-03-21T08:52:36.125Z,39.11
2023-03-21T08:53:36.076Z,39.79
2023-03-21T08:54:37.133Z,40.51
2023-03-21T08:55:36.386Z,40.75
2023-03-21T08:56:37.615Z,40.65
2023-03-21T08:57:36.238Z,40.31
2023-03-21T08:58:37.236Z,39.95
2023-03-21T08:59:37.266Z,39.77
2023-03-21T09:00:37.360Z,39.48
2023-03-21T09:01:37.408Z,39.40
2023-03-21T09:02:36.450Z,39.23
2023-03-21T09:03:37.467Z,38.96
2023-03-21T09:04:37.560Z,39.02
2023-03-21T09:05:36.879Z,38.89
2023-03-21T09:06:36.556Z,38.87
2023-03-21T09:07:36.569Z,38.82
2023-03-21T09:08:36.600Z,38.81
2023-03-21T09:09:37.589Z,38.85
2023-03-21T09:10:37.568Z,38.75
2023-03-21T09:11:37.553Z,38.76
2023-03-21T09:12:37.570Z,38.76
2023-03-21T09:15:38.001Z,39.27
2023-03-21T09:16:36.595Z,39.40
2023-03-21T09:17:36.610Z,39.20
2023-03-21T09:18:37.645Z,39.28
2023-03-21T09:19:37.687Z,39.20
2023-03-21T09:20:37.704Z,39.24
2023-03-21T09:21:37.736Z,39.32
2023-03-21T09:22:37.811Z,39.43
2023-03-21T09:23:37.837Z,39.59
2023-03-21T09:24:36.921Z,39.60
2023-03-21T09:25:38.222Z,39.60
2023-03-21T09:26:38.014Z,39.69
2023-03-21T09:27:38.058Z,39.71
2023-03-21T09:28:37.042Z,39.74
2023-03-21T09:29:38.099Z,39.75
2023-03-21T09:30:38.169Z,39.81
2023-03-21T09:31:38.284Z,39.78
2023-03-21T09:32:38.258Z,39.87
2023-03-21T09:34:38.395Z,39.99
2023-03-21T09:35:38.791Z,40.12
2023-03-21T09:36:37.501Z,40.22
2023-03-21T09:37:38.560Z,40.13
2023-03-21T09:38:38.628Z,40.17
2023-03-21T09:39:38.706Z,40.13
2023-03-21T09:40:37.751Z,40.27
2023-03-21T09:41:38.822Z,40.28
2023-03-21T09:42:38.883Z,40.59
2023-03-21T09:43:37.960Z,40.76
2023-03-21T09:44:37.966Z,39.66
2023-03-21T09:45:39.262Z,40.09
2023-03-21T09:46:39.056Z,39.05
2023-03-21T09:47:38.994Z,39.30
2023-03-21T09:48:46.959Z,39.91
2023-03-21T09:49:38.972Z,40.07
2023-03-21T09:50:38.966Z,40.22
2023-03-21T09:51:38.946Z,40.33
2023-03-21T09:52:38.935Z,40.59
2023-03-21T09:53:38.932Z,40.45
2023-03-21T09:54:37.979Z,40.37
2023-03-21T09:55:39.301Z,40.13
2023-03-21T09:56:38.935Z,39.86
2023-03-21T09:57:38.918Z,39.63
2023-03-21T09:58:38.898Z,40.17
2023-03-21T09:59:38.896Z,40.30
2023-03-21T10:00:38.936Z,39.85
2023-03-21T10:01:37.866Z,39.93
2023-03-21T10:02:38.903Z,39.84
2023-03-21T10:03:38.856Z,39.55
2023-03-21T10:04:38.054Z,39.79
2023-03-21T10:05:39.218Z,39.47
2023-03-21T10:06:38.836Z,39.44
2023-03-21T10:07:38.833Z,39.31
2023-03-21T10:08:38.859Z,39.47
2023-03-21T10:09:37.827Z,39.29
2023-03-21T10:10:38.947Z,39.43
2023-03-21T10:11:38.825Z,39.23
2023-03-21T10:12:37.788Z,38.81
2023-03-21T10:13:38.791Z,39.00
2023-03-21T10:14:38.776Z,38.86
2023-03-21T10:15:39.143Z,38.91
2023-03-21T10:16:38.806Z,38.58
2023-03-21T10:17:38.752Z,38.54
2023-03-21T10:18:38.788Z,38.63
2023-03-21T10:19:38.803Z,38.64
2023-03-21T10:20:37.822Z,38.45
2023-03-21T10:21:58.931Z,38.38
2023-03-21T10:22:38.871Z,39.19
2023-03-21T10:23:38.837Z,38.16
2023-03-21T10:24:38.833Z,38.14
2023-03-21T10:25:39.040Z,38.58
2023-03-21T10:26:38.820Z,38.46
2023-03-21T10:27:38.833Z,38.05
2023-03-21T10:29:38.850Z,38.33
2023-03-21T10:30:38.797Z,38.35
2023-03-21T10:31:37.812Z,38.41
2023-03-21T10:32:38.799Z,38.12
2023-03-21T10:33:39.205Z,37.96
2023-03-21T10:34:38.757Z,38.14
2023-03-21T10:35:38.953Z,37.86
2023-03-21T10:36:38.739Z,38.06
2023-03-21T10:37:38.720Z,38.04
2023-03-21T10:38:38.737Z,37.86
2023-03-21T10:39:38.717Z,37.70
2023-03-21T10:40:38.743Z,37.98
2023-03-21T10:41:38.718Z,37.96
2023-03-21T10:42:38.685Z,37.86
2023-03-21T10:43:38.697Z,38.08
2023-03-21T10:44:38.679Z,38.01
2023-03-21T10:45:38.999Z,37.89
2023-03-21T10:46:38.983Z,38.47
2023-03-21T10:47:38.910Z,38.49
2023-03-21T10:48:38.807Z,38.22
2023-03-21T10:50:05.801Z,37.25
2023-03-21T10:50:38.693Z,37.42
2023-03-21T10:51:38.739Z,37.04
2023-03-21T10:52:38.652Z,36.71
2023-03-21T10:53:38.616Z,36.54
2023-03-21T10:54:38.595Z,36.72
2023-03-21T10:55:38.814Z,36.82
2023-03-21T10:56:38.602Z,36.63
2023-03-21T10:57:37.563Z,36.65
2023-03-21T10:58:38.564Z,36.54
2023-03-21T10:59:38.590Z,36.63
2023-03-21T11:00:38.569Z,36.53
2023-03-21T11:01:38.597Z,36.33
2023-03-21T11:02:38.601Z,36.42
2023-03-21T11:03:38.588Z,36.15
2023-03-21T11:04:37.520Z,36.14
2023-03-21T11:05:38.814Z,36.20
2023-03-21T11:06:38.714Z,36.04
2023-03-21T11:07:38.516Z,35.92
2023-03-21T11:08:38.501Z,35.98
2023-03-21T11:09:38.494Z,35.84
2023-03-21T11:10:37.476Z,35.57
2023-03-21T11:11:38.458Z,35.38
2023-03-21T11:12:38.464Z,35.32
2023-03-21T11:13:38.459Z,34.92
2023-03-21T11:14:38.458Z,34.90
2023-03-21T11:16:39.843Z,34.92
2023-03-21T11:17:38.558Z,34.97
2023-03-21T11:18:38.544Z,34.75
2023-03-21T11:19:38.536Z,34.81
2023-03-21T11:20:38.519Z,34.78
2023-03-21T11:21:38.523Z,34.92
2023-03-21T11:22:38.525Z,34.90
2023-03-21T11:23:38.526Z,35.43
2023-03-21T11:24:38.508Z,34.93
2023-03-21T11:25:38.811Z,34.89
2023-03-21T11:26:38.476Z,34.88
2023-03-21T11:27:38.497Z,35.13
2023-03-21T11:28:38.460Z,34.86
2023-03-21T11:29:37.459Z,35.49
2023-03-21T11:30:38.489Z,35.46
2023-03-21T11:31:38.511Z,35.46
2023-03-21T11:32:38.498Z,35.67
2023-03-21T11:33:38.438Z,35.31
2023-03-21T11:35:38.863Z,35.58
2023-03-21T11:36:38.430Z,35.35
2023-03-21T11:37:38.468Z,35.60
2023-03-21T11:52:38.349Z,36.28
2023-03-21T11:58:38.534Z,35.58
2023-03-21T11:59:38.347Z,35.65
2023-03-21T12:02:37.500Z,35.41
2023-03-21T12:22:38.514Z,35.10
2023-03-21T12:23:38.608Z,35.58
2023-03-21T12:27:38.566Z,35.98
2023-03-21T12:32:37.652Z,36.43
2023-03-21T12:34:37.682Z,36.53
2023-03-21T12:39:37.708Z,37.09
2023-03-21T12:51:38.929Z,37.68
2023-03-21T12:56:38.922Z,37.54
2023-03-21T13:01:38.036Z,37.48
2023-03-21T13:13:39.523Z,37.71
2023-03-21T13:14:38.573Z,37.80
2023-03-21T13:18:38.690Z,37.75
2023-03-21T13:21:39.820Z,37.80
2023-03-21T13:23:40.100Z,37.79
2023-03-21T13:24:40.031Z,37.80
2023-03-21T13:27:39.243Z,37.86
2023-03-21T13:32:40.469Z,37.99
2023-03-21T13:33:39.462Z,37.99
2023-03-21T13:36:40.571Z,38.03
2023-03-21T13:40:40.010Z,38.15
2023-03-21T13:41:40.737Z,38.11
2023-03-21T13:44:40.740Z,38.13
2023-03-21T13:45:41.110Z,38.13
2023-03-21T13:46:52.909Z,38.21
2023-03-21T13:50:40.814Z,39.77
2023-03-21T13:53:40.793Z,39.18
2023-03-21T13:54:40.773Z,39.11
2023-03-21T13:56:40.811Z,39.05
2023-03-21T13:57:40.796Z,39.15
2023-03-21T14:00:40.757Z,39.35
2023-03-21T14:01:40.767Z,39.33
2023-03-21T14:06:40.702Z,39.48
2023-03-21T14:07:40.699Z,39.43
2023-03-21T14:08:40.693Z,39.49
2023-03-21T14:09:40.697Z,39.57
2023-03-21T14:10:40.674Z,39.53
2023-03-21T14:11:44.570Z,39.52
2023-03-21T14:12:40.686Z,39.56
2023-03-21T14:13:50.531Z,39.57
2023-03-21T14:14:40.648Z,39.70
2023-03-21T14:15:43.714Z,39.68
2023-03-21T14:16:40.634Z,39.76
2023-03-21T14:17:39.614Z,39.72
2023-03-21T14:18:53.620Z,38.16
2023-03-21T14:20:41.000Z,37.36
2023-03-21T14:21:39.598Z,36.92
2023-03-21T14:22:40.596Z,36.54
2023-03-21T14:23:40.578Z,36.49
2023-03-21T14:24:40.578Z,36.16
2023-03-21T14:25:46.861Z,36.05
2023-03-21T14:26:40.564Z,36.09
2023-03-21T14:27:40.670Z,35.95
2023-03-21T14:28:40.542Z,35.76
2023-03-21T14:29:40.544Z,35.75
2023-03-21T14:30:40.806Z,35.58
2023-03-21T14:31:40.508Z,35.60
2023-03-21T14:32:40.505Z,35.42
2023-03-21T14:33:40.488Z,35.45
2023-03-21T14:34:42.067Z,35.31
2023-03-21T14:35:41.184Z,35.25
2023-03-21T14:36:43.084Z,35.16
2023-03-21T14:37:40.487Z,35.15
2023-03-21T14:38:40.474Z,35.04
2023-03-21T14:39:40.457Z,34.89
2023-03-21T14:40:40.848Z,34.92
2023-03-21T14:41:40.440Z,35.03
2023-03-21T14:51:39.706Z,34.71
2023-03-21T14:52:40.808Z,34.73
2023-03-21T14:53:40.871Z,34.66
2023-03-21T14:54:40.898Z,34.75
2023-03-21T14:55:40.955Z,35.01
2023-03-21T14:56:40.971Z,35.10
2023-03-21T14:57:41.031Z,35.11
2023-03-21T14:58:41.010Z,35.19
2023-03-21T15:02:40.322Z,35.17
2023-03-21T15:03:41.253Z,35.17
2023-03-21T15:04:40.307Z,35.17
2023-03-21T15:05:41.826Z,35.13
2023-03-21T15:06:41.344Z,35.03
2023-03-21T15:07:41.381Z,35.11
2023-03-21T15:08:41.398Z,35.16
2023-03-21T15:09:40.441Z,35.20
2023-03-21T15:10:41.482Z,35.13
2023-03-21T15:11:41.518Z,35.16
2023-03-21T15:12:41.534Z,35.19
2023-03-21T15:13:41.613Z,35.25
2023-03-21T15:14:41.638Z,35.28
2023-03-21T15:15:42.178Z,35.41
2023-03-21T15:16:41.737Z,35.51
2023-03-21T15:17:41.796Z,35.42
2023-03-21T15:18:41.820Z,35.33
2023-03-21T15:19:41.875Z,35.32
2023-03-21T15:20:40.907Z,35.28
2023-03-21T15:21:41.932Z,35.24
2023-03-21T15:22:41.962Z,35.33
2023-03-21T15:23:41.993Z,35.35
2023-03-21T15:24:42.041Z,35.20
2023-03-21T15:30:42.103Z,34.98
2023-03-21T15:31:42.324Z,34.93
2023-03-21T15:38:42.109Z,35.40
2023-03-21T15:45:41.073Z,36.46
2023-03-21T15:46:42.200Z,36.61
2023-03-21T16:32:01.881Z,36.56
2023-03-21T16:33:01.616Z,36.60
2023-03-21T16:34:02.626Z,36.60
2023-03-21T16:35:02.774Z,36.63
2023-03-21T16:36:02.796Z,36.62
2023-03-21T16:37:02.780Z,36.66
2023-03-21T16:38:02.701Z,36.67
2023-03-21T16:39:01.754Z,36.69
2023-03-21T16:40:03.123Z,36.74
2023-03-21T16:41:02.801Z,36.70
2023-03-21T16:42:02.885Z,36.71
2023-03-21T16:43:02.940Z,36.76
2023-03-21T16:44:02.899Z,36.74
2023-03-21T16:45:02.928Z,36.73
2023-03-21T16:46:03.023Z,36.79
2023-03-21T16:47:03.110Z,36.79
2023-03-21T16:48:03.164Z,36.80
2023-03-21T16:49:03.054Z,36.82
2023-03-21T16:50:02.084Z,36.79
2023-03-21T16:51:02.150Z,36.85
2023-03-21T16:52:03.148Z,36.81
2023-03-21T16:53:03.220Z,36.89
2023-03-21T16:54:03.263Z,36.88
2023-03-21T16:55:03.285Z,36.89
2023-03-21T16:56:03.304Z,36.89
2023-03-21T16:57:03.375Z,36.92
2023-03-21T16:58:03.394Z,36.92
2023-03-21T16:59:03.391Z,36.92
2023-03-21T17:00:03.422Z,36.92
2023-03-21T17:01:03.525Z,36.93
2023-03-21T17:02:03.475Z,36.95
2023-03-21T17:03:03.635Z,37.00
2023-03-21T17:04:02.553Z,36.98
2023-03-21T17:05:04.561Z,37.01
2023-03-21T17:06:02.663Z,37.00
2023-03-21T17:07:03.720Z,37.00
2023-03-21T17:08:02.695Z,37.01
2023-03-21T17:09:03.738Z,37.04
2023-03-21T17:10:03.790Z,37.04
2023-03-21T17:11:04.407Z,37.03
2023-03-21T17:12:03.830Z,37.03
2023-03-21T17:13:03.895Z,37.05
2023-03-21T17:14:02.919Z,37.03
2023-03-21T17:15:03.933Z,37.09
2023-03-21T17:16:03.968Z,37.10
2023-03-21T17:17:04.056Z,37.08
2023-03-21T17:18:04.073Z,37.08
2023-03-21T17:19:04.084Z,37.06
2023-03-21T17:20:04.112Z,37.12
2023-03-21T17:21:03.155Z,37.10
2023-03-21T17:22:04.177Z,37.14
2023-03-21T17:23:04.239Z,37.12
2023-03-21T17:24:04.246Z,37.09
2023-03-21T17:25:04.273Z,37.11
2023-03-21T17:26:04.335Z,37.15
2023-03-21T17:27:04.319Z,37.15
2023-03-21T17:28:03.362Z,37.14
2023-03-21T17:29:04.422Z,37.18
2023-03-21T17:30:04.702Z,37.18
2023-03-21T17:31:04.578Z,37.23
2023-03-21T17:32:04.536Z,37.23
2023-03-21T17:33:04.544Z,37.21
2023-03-21T17:34:04.714Z,37.24
2023-03-21T17:35:04.611Z,37.25
2023-03-21T17:36:04.625Z,37.24
2023-03-21T17:37:03.664Z,37.28
2023-03-21T17:38:03.712Z,37.29
2023-03-21T17:39:04.771Z,37.25
2023-03-21T17:40:04.778Z,37.34
2023-03-21T17:41:05.678Z,37.35
2023-03-21T17:42:04.874Z,37.35
2023-03-21T17:43:03.868Z,37.32
2023-03-21T17:44:04.916Z,37.35
2023-03-21T17:45:05.017Z,37.42
2023-03-21T17:46:04.998Z,37.39
2023-03-21T17:47:04.997Z,37.40
2023-03-21T17:48:05.127Z,37.38
2023-03-21T17:49:05.077Z,37.38
2023-03-21T17:50:04.130Z,37.40
2023-03-21T17:51:05.123Z,37.45
2023-03-21T17:52:04.177Z,37.44
2023-03-21T17:53:05.238Z,37.44
2023-03-21T17:54:04.255Z,37.45
2023-03-21T17:55:05.317Z,37.43
2023-03-21T17:56:05.387Z,37.45
2023-03-21T17:57:05.346Z,37.45
2023-03-21T17:58:05.455Z,37.45
2023-03-21T17:59:04.452Z,37.48
2023-03-21T18:00:04.503Z,37.45
2023-03-21T18:01:05.500Z,37.50
2023-03-21T18:02:04.648Z,37.51
2023-03-21T18:03:05.596Z,37.52
2023-03-21T18:04:05.604Z,37.51
2023-03-21T18:05:05.758Z,37.55
2023-03-21T18:06:05.810Z,37.55
2023-03-21T18:07:07.623Z,37.55
2023-03-21T18:08:12.766Z,37.55
2023-03-21T18:09:05.714Z,37.56
2023-03-21T18:10:05.704Z,37.55
2023-03-21T18:11:05.814Z,37.60
2023-03-21T18:12:05.729Z,37.59
2023-03-21T18:13:05.688Z,37.63
2023-03-21T18:14:15.961Z,37.65
2023-03-21T18:15:13.890Z,37.62
2023-03-21T18:16:05.677Z,37.59
2023-03-21T18:17:05.685Z,37.65
2023-03-21T18:18:05.688Z,37.65
2023-03-21T18:19:05.648Z,37.65
2023-03-21T18:20:09.700Z,37.64
2023-03-21T18:21:04.622Z,37.70
2023-03-21T18:22:04.650Z,37.69
2023-03-21T18:23:05.888Z,37.73
2023-03-21T18:24:04.758Z,37.74
2023-03-21T18:25:05.850Z,37.69
2023-03-21T18:26:05.891Z,37.71
2023-03-21T18:27:06.061Z,37.73
2023-03-21T18:28:11.557Z,37.70
2023-03-21T18:30:41.219Z,37.73
2023-03-21T18:31:11.480Z,37.74
2023-03-21T18:32:08.026Z,37.76
2023-03-21T18:33:05.911Z,37.73
2023-03-21T18:34:05.873Z,37.78
2023-03-21T18:35:05.844Z,37.77
2023-03-21T18:36:07.848Z,37.77
2023-03-21T18:37:07.635Z,37.80
2023-03-21T18:38:05.976Z,37.81
2023-03-21T18:39:05.837Z,37.81
2023-03-21T18:40:05.843Z,37.80
2023-03-21T18:41:05.789Z,37.79
2023-03-21T18:42:06.215Z,37.81
2023-03-21T18:44:11.780Z,37.86
2023-03-21T18:45:05.777Z,37.81
2023-03-21T18:46:05.805Z,37.84
2023-03-21T18:47:05.842Z,37.86
2023-03-21T18:48:05.810Z,37.90
2023-03-21T18:49:48.247Z,37.86
2023-03-21T18:50:14.065Z,37.89
2023-03-21T18:51:05.773Z,37.89
2023-03-21T18:52:04.751Z,37.87
2023-03-21T18:53:06.338Z,37.90